PAL2045 RPLL-RPVE
Flight info
| Callsign | PAL2045 |
|---|---|
| Flight time | 0h 51m |
| Altitude | 21000 |
| Route | VERDE2R VERDE W24 TAPER TAPER7A |
| Aircraft | A320/M-SDE3FGHIRWY/LB1 |
Departure
| Time | 2026-04-25 13:12 |
|---|---|
| Airport | Ninoy Aquino International Airport (RPLL) |
Arrival
| Time | 2026-04-25 14:03 |
|---|---|
| Airport | Godofredo P. Ramos Airport (RPVE) |
| Time | Latitude | Longitude | Altitude | Speed | Heading |
|---|---|---|---|---|---|
| 2026-04-25 12:09 | 14.50954 | 121.01456 | 84 ft | 0 kts | 317° |
| 2026-04-25 12:54 | 14.50951 | 121.01458 | 84 ft | 2 kts | 315° |
| 2026-04-25 12:54 | 14.50941 | 121.01469 | 84 ft | 2 kts | 317° |
| 2026-04-25 12:54 | 14.50930 | 121.01479 | 84 ft | 2 kts | 316° |
| 2026-04-25 12:55 | 14.50919 | 121.01490 | 84 ft | 2 kts | 316° |
| 2026-04-25 12:55 | 14.50912 | 121.01497 | 84 ft | 2 kts | 316° |
| 2026-04-25 12:55 | 14.50897 | 121.01511 | 84 ft | 2 kts | 316° |
| 2026-04-25 12:55 | 14.50889 | 121.01524 | 84 ft | 2 kts | 292° |
| 2026-04-25 12:56 | 14.50885 | 121.01538 | 84 ft | 2 kts | 275° |
| 2026-04-25 12:56 | 14.50885 | 121.01553 | 84 ft | 2 kts | 257° |
| 2026-04-25 12:56 | 14.50890 | 121.01569 | 84 ft | 2 kts | 239° |
| 2026-04-25 12:56 | 14.50901 | 121.01582 | 84 ft | 2 kts | 221° |
| 2026-04-25 12:57 | 14.50925 | 121.01595 | 84 ft | 2 kts | 191° |
| 2026-04-25 12:57 | 14.50953 | 121.01595 | 84 ft | 2 kts | 162° |
| 2026-04-25 12:57 | 14.50975 | 121.01582 | 84 ft | 2 kts | 135° |
| 2026-04-25 12:57 | 14.50979 | 121.01577 | 84 ft | 0 kts | 132° |
| 2026-04-25 13:00 | 14.50967 | 121.01591 | 84 ft | 4 kts | 133° |
| 2026-04-25 13:01 | 14.50941 | 121.01618 | 84 ft | 2 kts | 134° |
| 2026-04-25 13:01 | 14.50930 | 121.01629 | 84 ft | 0 kts | 134° |
| 2026-04-25 13:01 | 14.50927 | 121.01633 | 84 ft | 2 kts | 134° |
| 2026-04-25 13:02 | 14.50750 | 121.01467 | 84 ft | 14 kts | 239° |
| 2026-04-25 13:02 | 14.50682 | 121.01345 | 84 ft | 15 kts | 240° |
| 2026-04-25 13:03 | 14.50638 | 121.01265 | 84 ft | 12 kts | 241° |
| 2026-04-25 13:03 | 14.50594 | 121.01183 | 84 ft | 13 kts | 240° |
| 2026-04-25 13:03 | 14.50547 | 121.01097 | 84 ft | 14 kts | 240° |
| 2026-04-25 13:03 | 14.50496 | 121.01009 | 84 ft | 14 kts | 240° |
| 2026-04-25 13:04 | 14.50443 | 121.00913 | 84 ft | 15 kts | 239° |
| 2026-04-25 13:04 | 14.50390 | 121.00817 | 84 ft | 15 kts | 240° |
| 2026-04-25 13:04 | 14.50334 | 121.00716 | 84 ft | 16 kts | 240° |
| 2026-04-25 13:04 | 14.50273 | 121.00606 | 84 ft | 18 kts | 240° |
| 2026-04-25 13:05 | 14.50209 | 121.00489 | 84 ft | 18 kts | 240° |
| 2026-04-25 13:05 | 14.50144 | 121.00372 | 84 ft | 18 kts | 240° |
| 2026-04-25 13:05 | 14.50078 | 121.00255 | 84 ft | 18 kts | 240° |
| 2026-04-25 13:05 | 14.50028 | 121.00163 | 84 ft | 14 kts | 240° |
| 2026-04-25 13:06 | 14.49994 | 121.00103 | 84 ft | 5 kts | 240° |
| 2026-04-25 13:06 | 14.49972 | 121.00063 | 84 ft | 7 kts | 240° |
| 2026-04-25 13:06 | 14.49944 | 121.00013 | 84 ft | 8 kts | 240° |
| 2026-04-25 13:06 | 14.49914 | 120.99968 | 84 ft | 6 kts | 212° |
| 2026-04-25 13:07 | 14.49893 | 120.99963 | 84 ft | 0 kts | 178° |
| 2026-04-25 13:09 | 14.49881 | 120.99966 | 84 ft | 4 kts | 165° |
| 2026-04-25 13:10 | 14.49836 | 120.99987 | 84 ft | 9 kts | 150° |
| 2026-04-25 13:10 | 14.49810 | 121.00057 | 84 ft | 13 kts | 66° |
| 2026-04-25 13:10 | 14.49844 | 121.00121 | 84 ft | 8 kts | 60° |
| 2026-04-25 13:10 | 14.49856 | 121.00143 | 84 ft | 0 kts | 60° |
| 2026-04-25 13:11 | 14.49897 | 121.00217 | 84 ft | 44 kts | 60° |
| 2026-04-25 13:11 | 14.50186 | 121.00734 | 84 ft | 119 kts | 60° |
| 2026-04-25 13:12 | 14.50676 | 121.01619 | 316 ft | 155 kts | 60° |
| 2026-04-25 13:12 | 14.51233 | 121.02625 | 852 ft | 168 kts | 60° |
| 2026-04-25 13:12 | 14.51826 | 121.03693 | 1533 ft | 176 kts | 60° |
| 2026-04-25 13:12 | 14.52230 | 121.04421 | 2022 ft | 178 kts | 60° |
| 2026-04-25 13:13 | 14.53090 | 121.05958 | 2775 ft | 196 kts | 60° |
| 2026-04-25 13:13 | 14.53805 | 121.07230 | 3198 ft | 213 kts | 60° |
| 2026-04-25 13:13 | 14.54476 | 121.08665 | 3503 ft | 236 kts | 77° |
| 2026-04-25 13:13 | 14.54444 | 121.10405 | 3926 ft | 254 kts | 108° |
| 2026-04-25 13:14 | 14.53531 | 121.11960 | 4599 ft | 261 kts | 136° |
| 2026-04-25 13:14 | 14.52098 | 121.13117 | 5453 ft | 262 kts | 146° |
| 2026-04-25 13:14 | 14.50586 | 121.14139 | 6237 ft | 266 kts | 147° |
| 2026-04-25 13:14 | 14.49029 | 121.15155 | 7034 ft | 269 kts | 148° |
| 2026-04-25 13:15 | 14.47443 | 121.16183 | 7841 ft | 273 kts | 148° |
| 2026-04-25 13:15 | 14.45819 | 121.17236 | 8657 ft | 276 kts | 148° |
| 2026-04-25 13:15 | 14.44200 | 121.18283 | 9458 ft | 279 kts | 148° |
| 2026-04-25 13:15 | 14.42550 | 121.19351 | 10247 ft | 283 kts | 148° |
| 2026-04-25 13:16 | 14.40852 | 121.20450 | 10803 ft | 297 kts | 148° |
| 2026-04-25 13:16 | 14.39048 | 121.21617 | 11064 ft | 320 kts | 148° |
| 2026-04-25 13:16 | 14.37090 | 121.22883 | 11071 ft | 341 kts | 148° |
| 2026-04-25 13:16 | 14.35077 | 121.24184 | 11071 ft | 345 kts | 148° |
| 2026-04-25 13:17 | 14.32952 | 121.25352 | 11244 ft | 355 kts | 162° |
| 2026-04-25 13:17 | 14.30517 | 121.25542 | 11981 ft | 356 kts | 189° |
| 2026-04-25 13:17 | 14.28138 | 121.24880 | 12899 ft | 353 kts | 197° |
| 2026-04-25 13:17 | 14.25760 | 121.24127 | 13554 ft | 358 kts | 197° |
| 2026-04-25 13:18 | 14.23343 | 121.23386 | 14191 ft | 362 kts | 196° |
| 2026-04-25 13:18 | 14.20919 | 121.22669 | 14837 ft | 366 kts | 195° |
| 2026-04-25 13:18 | 14.18445 | 121.21957 | 15468 ft | 369 kts | 195° |
| 2026-04-25 13:18 | 14.15952 | 121.21252 | 16079 ft | 373 kts | 195° |
| 2026-04-25 13:19 | 14.13434 | 121.20548 | 16672 ft | 376 kts | 195° |
| 2026-04-25 13:19 | 14.10910 | 121.19846 | 17244 ft | 379 kts | 195° |
| 2026-04-25 13:19 | 14.08381 | 121.19144 | 17796 ft | 383 kts | 195° |
| 2026-04-25 13:19 | 14.07528 | 121.18909 | 17977 ft | 384 kts | 195° |
| 2026-04-25 13:20 | 14.03196 | 121.17711 | 18863 ft | 389 kts | 195° |
| 2026-04-25 13:20 | 14.00573 | 121.17024 | 19364 ft | 392 kts | 190° |
| 2026-04-25 13:20 | 13.97843 | 121.17036 | 19792 ft | 397 kts | 167° |
| 2026-04-25 13:20 | 13.95267 | 121.17962 | 20347 ft | 397 kts | 157° |
| 2026-04-25 13:21 | 13.92727 | 121.19099 | 20810 ft | 401 kts | 156° |
| 2026-04-25 13:21 | 13.90147 | 121.20260 | 20993 ft | 403 kts | 156° |
| 2026-04-25 13:21 | 13.87582 | 121.21381 | 20995 ft | 403 kts | 157° |
| 2026-04-25 13:21 | 13.84978 | 121.22492 | 20997 ft | 403 kts | 158° |
| 2026-04-25 13:22 | 13.82389 | 121.23577 | 20998 ft | 403 kts | 158° |
| 2026-04-25 13:22 | 13.79795 | 121.24652 | 20998 ft | 403 kts | 158° |
| 2026-04-25 13:22 | 13.77189 | 121.25725 | 20998 ft | 403 kts | 158° |
| 2026-04-25 13:23 | 13.72022 | 121.27841 | 20998 ft | 403 kts | 158° |
| 2026-04-25 13:23 | 13.69390 | 121.28916 | 20998 ft | 403 kts | 158° |
| 2026-04-25 13:23 | 13.66818 | 121.29966 | 20998 ft | 403 kts | 158° |
| 2026-04-25 13:23 | 13.64199 | 121.31034 | 20998 ft | 403 kts | 158° |
| 2026-04-25 13:24 | 13.61550 | 121.32114 | 20998 ft | 403 kts | 158° |
| 2026-04-25 13:24 | 13.59815 | 121.32821 | 20998 ft | 403 kts | 158° |
| 2026-04-25 13:24 | 13.56370 | 121.34224 | 20998 ft | 403 kts | 158° |
| 2026-04-25 13:24 | 13.53742 | 121.35294 | 20998 ft | 403 kts | 158° |
| 2026-04-25 13:25 | 13.51172 | 121.36340 | 20998 ft | 403 kts | 158° |
| 2026-04-25 13:25 | 13.48561 | 121.37403 | 20998 ft | 403 kts | 158° |
| 2026-04-25 13:25 | 13.45971 | 121.38457 | 20915 ft | 403 kts | 158° |
| 2026-04-25 13:25 | 13.43376 | 121.39512 | 20662 ft | 400 kts | 158° |
| 2026-04-25 13:26 | 13.40774 | 121.40571 | 20410 ft | 399 kts | 158° |
| 2026-04-25 13:26 | 13.38200 | 121.41617 | 20159 ft | 397 kts | 158° |
| 2026-04-25 13:26 | 13.35640 | 121.42657 | 19909 ft | 396 kts | 158° |
| 2026-04-25 13:26 | 13.33115 | 121.43684 | 19661 ft | 394 kts | 158° |
| 2026-04-25 13:27 | 13.30550 | 121.44726 | 19409 ft | 392 kts | 158° |
| 2026-04-25 13:27 | 13.28017 | 121.45755 | 19158 ft | 391 kts | 158° |
| 2026-04-25 13:27 | 13.25498 | 121.46778 | 18908 ft | 389 kts | 158° |
| 2026-04-25 13:27 | 13.23002 | 121.47791 | 18659 ft | 388 kts | 158° |
| 2026-04-25 13:28 | 13.20516 | 121.48801 | 18410 ft | 386 kts | 158° |
| 2026-04-25 13:28 | 13.19667 | 121.49146 | 18325 ft | 386 kts | 158° |
| 2026-04-25 13:28 | 13.15546 | 121.50818 | 17910 ft | 383 kts | 158° |
| 2026-04-25 13:28 | 13.13080 | 121.51818 | 17661 ft | 382 kts | 158° |
| 2026-04-25 13:29 | 13.10631 | 121.52811 | 17412 ft | 380 kts | 158° |
| 2026-04-25 13:29 | 13.08183 | 121.53804 | 17162 ft | 379 kts | 158° |
| 2026-04-25 13:29 | 13.05733 | 121.54797 | 16911 ft | 377 kts | 158° |
| 2026-04-25 13:30 | 13.00858 | 121.56773 | 16409 ft | 374 kts | 158° |
| 2026-04-25 13:30 | 12.98414 | 121.57764 | 16155 ft | 373 kts | 158° |
| 2026-04-25 13:30 | 12.95994 | 121.58744 | 15904 ft | 371 kts | 158° |
| 2026-04-25 13:31 | 12.91237 | 121.60671 | 15406 ft | 369 kts | 158° |
| 2026-04-25 13:31 | 12.88850 | 121.61637 | 15155 ft | 367 kts | 158° |
| 2026-04-25 13:31 | 12.86458 | 121.62605 | 14902 ft | 366 kts | 158° |
| 2026-04-25 13:31 | 12.84101 | 121.63558 | 14652 ft | 364 kts | 158° |
| 2026-04-25 13:32 | 12.81683 | 121.64536 | 14395 ft | 363 kts | 158° |
| 2026-04-25 13:32 | 12.79307 | 121.65498 | 14104 ft | 361 kts | 158° |
| 2026-04-25 13:32 | 12.76947 | 121.66452 | 13800 ft | 360 kts | 158° |
| 2026-04-25 13:32 | 12.74606 | 121.67399 | 13496 ft | 358 kts | 158° |
| 2026-04-25 13:33 | 12.72312 | 121.68326 | 13198 ft | 356 kts | 158° |
| 2026-04-25 13:33 | 12.70027 | 121.69250 | 12899 ft | 355 kts | 158° |
| 2026-04-25 13:33 | 12.67722 | 121.70181 | 12596 ft | 353 kts | 158° |
| 2026-04-25 13:33 | 12.65426 | 121.71109 | 12293 ft | 351 kts | 158° |
| 2026-04-25 13:34 | 12.63163 | 121.72023 | 11993 ft | 350 kts | 158° |
| 2026-04-25 13:34 | 12.60936 | 121.72922 | 11697 ft | 348 kts | 158° |
| 2026-04-25 13:34 | 12.58669 | 121.73838 | 11407 ft | 347 kts | 158° |
| 2026-04-25 13:34 | 12.56455 | 121.74731 | 11160 ft | 345 kts | 158° |
| 2026-04-25 13:35 | 12.54229 | 121.75630 | 10910 ft | 344 kts | 158° |
| 2026-04-25 13:35 | 12.52026 | 121.76519 | 10657 ft | 336 kts | 158° |
| 2026-04-25 13:35 | 12.49886 | 121.77383 | 10402 ft | 325 kts | 158° |
| 2026-04-25 13:35 | 12.47824 | 121.78214 | 10150 ft | 315 kts | 158° |
| 2026-04-25 13:36 | 12.45815 | 121.79024 | 9913 ft | 305 kts | 158° |
| 2026-04-25 13:36 | 12.43881 | 121.79803 | 9807 ft | 292 kts | 158° |
| 2026-04-25 13:36 | 12.42030 | 121.80550 | 9701 ft | 281 kts | 158° |
| 2026-04-25 13:36 | 12.40213 | 121.81283 | 9602 ft | 280 kts | 158° |
| 2026-04-25 13:37 | 12.38417 | 121.82007 | 9503 ft | 279 kts | 158° |
| 2026-04-25 13:37 | 12.36593 | 121.82715 | 9396 ft | 277 kts | 161° |
| 2026-04-25 13:37 | 12.34764 | 121.83298 | 9063 ft | 276 kts | 163° |
| 2026-04-25 13:37 | 12.32940 | 121.83839 | 8753 ft | 273 kts | 164° |
| 2026-04-25 13:38 | 12.31109 | 121.84380 | 8678 ft | 275 kts | 164° |
| 2026-04-25 13:38 | 12.29263 | 121.84925 | 8603 ft | 276 kts | 164° |
| 2026-04-25 13:38 | 12.27424 | 121.85470 | 8528 ft | 275 kts | 164° |
| 2026-04-25 13:38 | 12.25599 | 121.86011 | 8454 ft | 275 kts | 164° |
| 2026-04-25 13:39 | 12.23744 | 121.86563 | 8378 ft | 275 kts | 164° |
| 2026-04-25 13:39 | 12.21921 | 121.87106 | 8304 ft | 274 kts | 164° |
| 2026-04-25 13:39 | 12.20111 | 121.87643 | 8230 ft | 274 kts | 164° |
| 2026-04-25 13:39 | 12.18276 | 121.88190 | 8155 ft | 274 kts | 163° |
| 2026-04-25 13:40 | 12.16442 | 121.88735 | 8097 ft | 273 kts | 163° |
| 2026-04-25 13:40 | 12.14627 | 121.89275 | 7950 ft | 272 kts | 163° |
| 2026-04-25 13:40 | 12.12815 | 121.89815 | 7624 ft | 270 kts | 163° |
| 2026-04-25 13:40 | 12.11028 | 121.90346 | 7269 ft | 269 kts | 163° |
| 2026-04-25 13:41 | 12.09267 | 121.90870 | 7118 ft | 259 kts | 164° |
| 2026-04-25 13:41 | 12.07575 | 121.91373 | 7098 ft | 245 kts | 164° |
| 2026-04-25 13:41 | 12.06001 | 121.91841 | 7088 ft | 231 kts | 164° |
| 2026-04-25 13:41 | 12.04504 | 121.92283 | 7053 ft | 219 kts | 166° |
| 2026-04-25 13:42 | 12.03037 | 121.92329 | 6988 ft | 207 kts | 197° |
| 2026-04-25 13:42 | 12.01816 | 121.91616 | 6996 ft | 204 kts | 228° |
| 2026-04-25 13:42 | 12.01129 | 121.90350 | 7003 ft | 204 kts | 259° |
| 2026-04-25 13:42 | 12.01181 | 121.88914 | 7006 ft | 204 kts | 290° |
| 2026-04-25 13:43 | 12.01948 | 121.87701 | 7007 ft | 204 kts | 321° |
| 2026-04-25 13:43 | 12.03180 | 121.87039 | 7018 ft | 204 kts | 342° |
| 2026-04-25 13:43 | 12.04553 | 121.86636 | 7016 ft | 204 kts | 345° |
| 2026-04-25 13:43 | 12.05932 | 121.86258 | 7010 ft | 204 kts | 345° |
| 2026-04-25 13:44 | 12.07293 | 121.85874 | 7008 ft | 204 kts | 344° |
| 2026-04-25 13:44 | 12.08659 | 121.85477 | 7007 ft | 204 kts | 344° |
| 2026-04-25 13:44 | 12.10051 | 121.85278 | 6990 ft | 204 kts | 9° |
| 2026-04-25 13:44 | 12.11349 | 121.85819 | 7001 ft | 204 kts | 40° |
| 2026-04-25 13:45 | 12.12189 | 121.86980 | 7005 ft | 204 kts | 72° |
| 2026-04-25 13:45 | 12.12327 | 121.88415 | 7007 ft | 204 kts | 102° |
| 2026-04-25 13:45 | 12.11752 | 121.89701 | 6939 ft | 201 kts | 132° |
| 2026-04-25 13:45 | 12.10619 | 121.90526 | 6628 ft | 202 kts | 160° |
| 2026-04-25 13:46 | 12.09290 | 121.90941 | 6367 ft | 202 kts | 165° |
| 2026-04-25 13:46 | 12.07940 | 121.91309 | 6112 ft | 201 kts | 165° |
| 2026-04-25 13:46 | 12.06582 | 121.91688 | 5859 ft | 200 kts | 164° |
| 2026-04-25 13:46 | 12.05251 | 121.92072 | 5612 ft | 200 kts | 164° |
| 2026-04-25 13:47 | 12.03906 | 121.92432 | 5359 ft | 199 kts | 174° |
| 2026-04-25 13:47 | 12.02548 | 121.92202 | 5122 ft | 197 kts | 208° |
| 2026-04-25 13:47 | 12.01526 | 121.91291 | 5109 ft | 198 kts | 238° |
| 2026-04-25 13:47 | 12.01069 | 121.89977 | 5106 ft | 198 kts | 268° |
| 2026-04-25 13:48 | 12.01302 | 121.88610 | 5104 ft | 198 kts | 297° |
| 2026-04-25 13:48 | 12.02175 | 121.87529 | 5098 ft | 197 kts | 327° |
| 2026-04-25 13:48 | 12.03400 | 121.86971 | 4896 ft | 195 kts | 343° |
| 2026-04-25 13:48 | 12.04720 | 121.86595 | 4611 ft | 196 kts | 345° |
| 2026-04-25 13:49 | 12.06037 | 121.86237 | 4363 ft | 196 kts | 345° |
| 2026-04-25 13:49 | 12.07340 | 121.85870 | 4128 ft | 195 kts | 346° |
| 2026-04-25 13:49 | 12.08680 | 121.85818 | 3908 ft | 193 kts | 19° |
| 2026-04-25 13:49 | 12.09803 | 121.86531 | 3916 ft | 194 kts | 49° |
| 2026-04-25 13:50 | 12.10461 | 121.87723 | 3908 ft | 195 kts | 77° |
| 2026-04-25 13:50 | 12.10486 | 121.89101 | 3909 ft | 200 kts | 105° |
| 2026-04-25 13:50 | 12.09801 | 121.90389 | 3911 ft | 211 kts | 136° |
| 2026-04-25 13:50 | 12.08547 | 121.91153 | 3911 ft | 213 kts | 162° |
| 2026-04-25 13:51 | 12.07134 | 121.91576 | 3907 ft | 213 kts | 165° |
| 2026-04-25 13:51 | 12.05706 | 121.91968 | 3903 ft | 213 kts | 165° |
| 2026-04-25 13:51 | 12.04264 | 121.92370 | 3901 ft | 213 kts | 167° |
| 2026-04-25 13:51 | 12.02808 | 121.92346 | 3880 ft | 213 kts | 204° |
| 2026-04-25 13:52 | 12.01713 | 121.91377 | 3895 ft | 213 kts | 241° |
| 2026-04-25 13:52 | 12.01340 | 121.89941 | 3904 ft | 213 kts | 269° |
| 2026-04-25 13:52 | 12.01276 | 121.88417 | 3899 ft | 213 kts | 258° |
| 2026-04-25 13:52 | 12.00706 | 121.87046 | 3901 ft | 213 kts | 239° |
| 2026-04-25 13:53 | 11.99909 | 121.85745 | 3901 ft | 213 kts | 236° |
| 2026-04-25 13:53 | 11.99089 | 121.84504 | 3900 ft | 213 kts | 235° |
| 2026-04-25 13:53 | 11.98247 | 121.83261 | 3900 ft | 213 kts | 235° |
| 2026-04-25 13:53 | 11.97388 | 121.82006 | 3900 ft | 213 kts | 235° |
| 2026-04-25 13:54 | 11.96546 | 121.80781 | 3900 ft | 213 kts | 235° |
| 2026-04-25 13:54 | 11.95977 | 121.79953 | 3897 ft | 210 kts | 235° |
| 2026-04-25 13:54 | 11.94906 | 121.78396 | 3950 ft | 186 kts | 235° |
| 2026-04-25 13:54 | 11.94191 | 121.77356 | 3921 ft | 170 kts | 235° |
| 2026-04-25 13:55 | 11.93549 | 121.76422 | 3877 ft | 154 kts | 235° |
| 2026-04-25 13:55 | 11.92943 | 121.75542 | 3875 ft | 149 kts | 235° |
| 2026-04-25 13:55 | 11.92353 | 121.74684 | 3890 ft | 149 kts | 234° |
| 2026-04-25 13:55 | 11.91585 | 121.73911 | 3928 ft | 167 kts | 211° |
| 2026-04-25 13:56 | 11.90443 | 121.73553 | 3935 ft | 181 kts | 182° |
| 2026-04-25 13:56 | 11.89181 | 121.73838 | 3924 ft | 185 kts | 156° |
| 2026-04-25 13:56 | 11.88014 | 121.74429 | 3915 ft | 185 kts | 152° |
| 2026-04-25 13:56 | 11.86849 | 121.75068 | 3906 ft | 185 kts | 152° |
| 2026-04-25 13:57 | 11.85728 | 121.75678 | 3902 ft | 185 kts | 152° |
| 2026-04-25 13:57 | 11.84991 | 121.76072 | 3901 ft | 185 kts | 151° |
| 2026-04-25 13:57 | 11.83865 | 121.77322 | 3879 ft | 185 kts | 105° |
| 2026-04-25 13:57 | 11.83943 | 121.78622 | 3659 ft | 185 kts | 68° |
| 2026-04-25 13:58 | 11.84510 | 121.79790 | 3417 ft | 184 kts | 61° |
| 2026-04-25 13:58 | 11.85131 | 121.80943 | 3172 ft | 183 kts | 61° |
| 2026-04-25 13:58 | 11.85736 | 121.82079 | 2933 ft | 183 kts | 62° |
| 2026-04-25 13:58 | 11.86330 | 121.83221 | 2695 ft | 182 kts | 62° |
| 2026-04-25 13:59 | 11.86918 | 121.84370 | 2459 ft | 181 kts | 62° |
| 2026-04-25 13:59 | 11.87495 | 121.85509 | 2181 ft | 179 kts | 62° |
| 2026-04-25 13:59 | 11.88038 | 121.86587 | 1912 ft | 167 kts | 63° |
| 2026-04-25 13:59 | 11.88385 | 121.87276 | 1724 ft | 160 kts | 63° |
| 2026-04-25 14:01 | 11.91047 | 121.92581 | 542 ft | 135 kts | 63° |
| 2026-04-25 14:01 | 11.91468 | 121.93420 | 267 ft | 130 kts | 63° |
| 2026-04-25 14:01 | 11.91872 | 121.94232 | 146 ft | 130 kts | 63° |
| 2026-04-25 14:01 | 11.92287 | 121.95059 | 58 ft | 129 kts | 62° |
| 2026-04-25 14:02 | 11.92655 | 121.95792 | 31 ft | 89 kts | 64° |
| 2026-04-25 14:02 | 11.92732 | 121.95949 | 31 ft | 60 kts | 62° |
| 2026-04-25 14:03 | 11.92782 | 121.96501 | 31 ft | 10 kts | 233° |
| 2026-04-25 14:03 | 11.92756 | 121.96452 | 31 ft | 6 kts | 242° |
| 2026-04-25 14:03 | 11.92735 | 121.96441 | 31 ft | 4 kts | 159° |
| 2026-04-25 14:04 | 11.92706 | 121.96456 | 31 ft | 3 kts | 153° |
| 2026-04-25 14:04 | 11.92696 | 121.96461 | 31 ft | 0 kts | 154° |